Time;durP1;ratioP1;P1;durP2;ratioP2;P2;SDS_P1;SDS_P2;PMS_P1;PMS_P2;Temp;Humidity;BMP_temperature;BMP_pressure;BME280_temperature;BME280_humidity;BME280_pressure;Samples;Min_cycle;Max_cycle;Signal;HPM_P1;HPM_P2
2024/04/17 00:01:52;;;;;;;10.57;3.05;;;4.00;99.90;;;;;;5381685;26;20386;-82
2024/04/17 00:04:18;;;;;;;8.90;2.72;;;4.00;99.90;;;;;;5381992;26;20465;-82
2024/04/17 00:06:43;;;;;;;6.85;2.78;;;4.00;99.90;;;;;;5381930;26;20359;-82
2024/04/17 00:09:11;;;;;;;8.45;2.42;;;4.00;99.90;;;;;;5380448;26;20417;-82
2024/04/17 00:11:43;;;;;;;9.65;3.13;;;4.00;99.90;;;;;;5381433;26;20089;-82
2024/04/17 00:14:21;;;;;;;8.13;2.95;;;4.00;99.90;;;;;;5378529;26;20015;-82
2024/04/17 00:16:52;;;;;;;6.93;2.72;;;4.00;99.90;;;;;;5351154;26;20077;-82
2024/04/17 00:19:21;;;;;;;9.60;2.90;;;4.00;99.90;;;;;;5351679;26;20459;-82
2024/04/17 00:21:47;;;;;;;9.55;2.97;;;4.00;99.90;;;;;;5382075;26;20026;-82
2024/04/17 00:24:13;;;;;;;7.18;3.17;;;4.00;99.90;;;;;;5381680;26;20020;-82
2024/04/17 00:26:38;;;;;;;8.50;2.45;;;4.00;99.90;;;;;;5406975;26;20014;-82
2024/04/17 00:29:47;;;;;;;11.75;2.97;;;4.00;99.90;;;;;;5440987;26;20466;-82
2024/04/17 00:32:13;;;;;;;14.13;3.17;;;4.00;99.90;;;;;;5455253;26;20087;-82
2024/04/17 00:34:38;;;;;;;9.00;2.58;;;4.00;99.90;;;;;;5456149;26;20450;-82
2024/04/17 00:37:04;;;;;;;9.45;2.92;;;4.00;99.90;;;;;;5454655;26;20033;-82
2024/04/17 00:39:30;;;;;;;8.70;2.60;;;4.00;99.90;;;;;;5455614;26;20010;-82
2024/04/17 00:41:55;;;;;;;10.15;3.05;;;4.00;99.90;;;;;;5456532;26;20365;-82
2024/04/17 00:44:21;;;;;;;7.35;2.55;;;4.00;99.90;;;;;;5456120;26;20019;-82
2024/04/17 00:46:48;;;;;;;6.00;2.53;;;4.00;99.90;;;;;;5456368;26;20018;-82
2024/04/17 00:49:13;;;;;;;6.20;2.38;;;4.00;99.90;;;;;;5456529;26;20021;-82
2024/04/17 00:51:40;;;;;;;6.47;2.30;;;4.00;99.90;;;;;;5402860;26;20020;-82
2024/04/17 00:54:07;;;;;;;6.10;2.83;;;4.00;99.90;;;;;;5384212;26;20008;-82
2024/04/17 00:56:34;;;;;;;8.00;2.55;;;4.00;99.90;;;;;;5392647;26;20080;-82
2024/04/17 00:59:00;;;;;;;7.30;2.88;;;4.00;99.90;;;;;;5420813;26;20126;-82
2024/04/17 01:01:26;;;;;;;6.97;2.50;;;4.00;99.90;;;;;;5420571;26;20084;-82
2024/04/17 01:03:51;;;;;;;9.20;3.00;;;4.10;99.90;;;;;;5401703;26;20491;-82
2024/04/17 01:06:18;;;;;;;8.35;2.92;;;4.10;99.90;;;;;;5388099;26;20019;-81
2024/04/17 01:08:44;;;;;;;8.70;2.47;;;4.10;99.90;;;;;;5383368;26;20008;-82
2024/04/17 01:11:09;;;;;;;11.07;3.35;;;4.20;99.90;;;;;;5382581;26;20392;-82
2024/04/17 01:13:36;;;;;;;9.55;4.03;;;4.20;99.90;;;;;;5384233;26;20014;-82
2024/04/17 01:16:01;;;;;;;9.30;2.95;;;4.20;99.90;;;;;;5384627;26;20452;-82
2024/04/17 01:18:28;;;;;;;6.80;3.25;;;4.20;99.90;;;;;;5383621;26;20078;-83
2024/04/17 01:20:55;;;;;;;10.15;2.88;;;4.30;99.90;;;;;;5384286;26;20077;-82
2024/04/17 01:23:29;;;;;;;7.45;2.50;;;4.30;99.90;;;;;;5385132;26;20008;-82
2024/04/17 01:25:54;;;;;;;6.03;2.58;;;4.30;99.90;;;;;;5383729;26;20016;-82
2024/04/17 01:28:21;;;;;;;5.30;2.65;;;4.40;99.90;;;;;;5381759;26;20077;-82
2024/04/17 01:30:46;;;;;;;10.75;2.88;;;4.40;99.90;;;;;;5399742;26;20084;-82
2024/04/17 01:33:12;;;;;;;9.02;2.67;;;4.40;99.90;;;;;;5408740;26;20455;-82
2024/04/17 01:35:38;;;;;;;6.85;2.30;;;4.40;99.90;;;;;;5384681;26;20054;-82
2024/04/17 01:38:03;;;;;;;6.97;2.58;;;4.40;99.90;;;;;;5409606;26;20004;-82
2024/04/17 01:40:30;;;;;;;7.03;2.42;;;4.50;99.90;;;;;;5418396;26;20011;-82
2024/04/17 01:42:56;;;;;;;8.50;2.47;;;4.50;99.90;;;;;;5410680;26;20004;-82
2024/04/17 01:45:21;;;;;;;8.02;2.33;;;4.50;99.90;;;;;;5381933;26;20008;-82
2024/04/17 01:47:47;;;;;;;5.70;2.45;;;4.60;99.90;;;;;;5407292;26;20049;-82
2024/04/17 01:50:13;;;;;;;9.25;2.60;;;4.60;99.90;;;;;;5419946;26;20473;-82
2024/04/17 01:52:39;;;;;;;5.57;2.25;;;4.60;99.90;;;;;;5419618;26;20007;-83
2024/04/17 01:55:06;;;;;;;10.38;3.00;;;4.70;99.90;;;;;;5419246;26;20080;-82
2024/04/17 01:57:31;;;;;;;7.65;2.50;;;4.70;99.90;;;;;;5411288;26;20593;-82
2024/04/17 01:59:57;;;;;;;5.65;2.05;;;4.70;99.90;;;;;;5383138;26;20083;-83
2024/04/17 02:02:22;;;;;;;7.25;2.28;;;4.70;99.90;;;;;;5390183;26;20575;-83
2024/04/17 02:04:48;;;;;;;8.48;2.05;;;4.80;99.90;;;;;;5419406;26;19999;-82
2024/04/17 02:07:14;;;;;;;9.55;2.10;;;4.80;99.90;;;;;;5409769;21;20017;-83
2024/04/17 02:09:40;;;;;;;3.00;1.38;;;5.90;99.90;;;;;;5307902;27;20020;-82
2024/04/17 02:12:06;;;;;;;4.55;1.50;;;5.60;99.90;;;;;;5303367;27;20010;-82
2024/04/17 02:14:32;;;;;;;3.92;1.42;;;5.20;99.90;;;;;;5295805;26;20450;-82
2024/04/17 02:16:58;;;;;;;6.25;1.60;;;5.00;99.90;;;;;;5271252;27;20018;-82
2024/04/17 02:19:24;;;;;;;4.28;1.63;;;4.50;99.90;;;;;;5272110;27;20007;-82
2024/04/17 02:21:49;;;;;;;4.20;1.83;;;4.70;99.90;;;;;;5276667;27;20089;-82
2024/04/17 02:24:15;;;;;;;3.85;1.40;;;4.60;99.90;;;;;;5277668;27;20030;-83
2024/04/17 02:26:41;;;;;;;5.82;1.40;;;4.40;99.90;;;;;;5277397;27;20347;-82
2024/04/17 02:29:07;;;;;;;4.55;1.33;;;4.50;99.90;;;;;;5277596;27;20088;-82
2024/04/17 02:31:32;;;;;;;2.53;1.20;;;4.90;99.90;;;;;;5275505;27;20022;-81
2024/04/17 02:33:58;;;;;;;3.67;1.52;;;4.40;99.90;;;;;;5269310;27;20010;-80
2024/04/17 02:36:24;;;;;;;3.55;1.38;;;4.60;99.90;;;;;;5270555;27;20591;-80
2024/04/17 02:38:49;;;;;;;3.80;1.52;;;4.60;99.90;;;;;;5276035;27;20010;-81
2024/04/17 02:41:15;;;;;;;4.13;1.17;;;5.60;99.90;;;;;;5262282;27;20007;-81
2024/04/17 02:43:40;;;;;;;2.92;1.33;;;4.90;99.90;;;;;;5277032;27;20010;-80
2024/04/17 02:46:06;;;;;;;4.03;1.50;;;4.90;99.90;;;;;;5277166;27;20010;-81
2024/04/17 02:48:32;;;;;;;6.97;1.88;;;4.90;99.90;;;;;;5276729;27;20014;-80
2024/04/17 02:50:57;;;;;;;6.03;1.63;;;4.90;99.90;;;;;;5276040;27;20884;-80
2024/04/17 02:53:23;;;;;;;4.35;1.10;;;4.90;99.90;;;;;;5275478;27;20014;-81
2024/04/17 02:55:50;;;;;;;5.60;1.55;;;4.90;99.90;;;;;;5276019;27;20022;-81
2024/04/17 02:58:15;;;;;;;4.90;1.58;;;5.00;99.90;;;;;;5276238;27;20025;-80
2024/04/17 03:00:41;;;;;;;3.67;1.25;;;4.90;99.90;;;;;;5274066;27;20046;-80
2024/04/17 03:03:06;;;;;;;6.28;1.98;;;5.00;99.90;;;;;;5274466;27;20021;-77
2024/04/17 03:05:35;;;;;;;2.15;1.15;;;5.00;99.90;;;;;;5273775;27;20010;-78
2024/04/17 03:08:21;;;;;;;4.15;1.20;;;5.00;99.90;;;;;;5272805;27;20006;-78
2024/04/17 03:10:46;;;;;;;3.83;1.70;;;5.00;99.90;;;;;;5268424;27;20007;-77
2024/04/17 03:13:32;;;;;;;3.58;1.25;;;5.00;99.90;;;;;;5287265;27;20355;-78
2024/04/17 03:16:02;;;;;;;3.00;1.17;;;5.00;99.90;;;;;;5262508;27;20006;-78
2024/04/17 03:18:28;;;;;;;5.88;1.15;;;5.00;99.90;;;;;;5268340;27;20006;-78
2024/04/17 03:21:02;;;;;;;3.00;1.30;;;5.00;99.90;;;;;;5260537;27;20388;-78
2024/04/17 03:23:28;;;;;;;3.50;1.02;;;5.00;99.90;;;;;;5274290;27;20025;-78
2024/04/17 03:25:56;;;;;;;2.42;0.82;;;5.00;99.90;;;;;;5273824;27;20010;-78
2024/04/17 03:28:23;;;;;;;2.70;1.10;;;5.00;99.90;;;;;;5274034;27;20469;-78
2024/04/17 03:30:48;;;;;;;1.52;0.70;;;5.10;99.90;;;;;;5274003;27;20006;-79
2024/04/17 03:33:14;;;;;;;1.80;0.95;;;5.00;99.90;;;;;;5273828;27;20503;-78
2024/04/17 03:35:41;;;;;;;3.25;0.90;;;5.00;99.90;;;;;;5273669;27;20078;-78
2024/04/17 03:38:06;;;;;;;1.77;0.82;;;5.10;99.90;;;;;;5274139;27;20022;-78
2024/04/17 03:40:32;;;;;;;2.70;1.08;;;5.00;99.90;;;;;;5274257;27;20080;-79
2024/04/17 03:43:07;;;;;;;3.97;0.80;;;5.10;99.90;;;;;;5273465;27;20017;-78
2024/04/17 03:45:33;;;;;;;5.95;1.00;;;5.10;99.90;;;;;;5273634;27;20346;-79
2024/04/17 03:48:00;;;;;;;3.42;1.05;;;5.10;99.90;;;;;;5285031;26;20485;-77
2024/04/17 03:50:26;;;;;;;2.97;0.88;;;5.10;99.90;;;;;;5258653;27;20007;-80
2024/04/17 03:52:51;;;;;;;5.32;1.10;;;5.10;99.90;;;;;;5275417;27;20006;-81
2024/04/17 03:55:19;;;;;;;4.35;1.20;;;5.10;99.90;;;;;;5259679;27;20010;-80
2024/04/17 03:57:45;;;;;;;2.55;1.00;;;5.10;99.90;;;;;;5261565;27;20025;-81
2024/04/17 04:00:11;;;;;;;5.57;1.20;;;5.10;99.90;;;;;;5274283;27;20021;-79
2024/04/17 04:02:37;;;;;;;3.65;1.10;;;5.10;99.90;;;;;;5275763;27;20010;-80
2024/04/17 04:05:11;;;;;;;3.45;1.35;;;5.10;99.90;;;;;;5299400;27;20010;-80
2024/04/17 04:07:38;;;;;;;2.70;0.90;;;5.20;99.90;;;;;;5276464;27;20025;-80
2024/04/17 04:10:07;;;;;;;8.50;1.35;;;5.10;99.90;;;;;;5261980;27;20845;-79
2024/04/17 04:12:32;;;;;;;4.68;0.77;;;5.10;99.90;;;;;;5274151;27;20006;-80
2024/04/17 04:14:58;;;;;;;2.55;1.20;;;5.20;99.90;;;;;;5272889;27;20106;-80
2024/04/17 04:17:24;;;;;;;4.18;1.15;;;5.20;99.90;;;;;;5275972;27;20085;-80
2024/04/17 04:19:52;;;;;;;3.90;0.90;;;5.10;99.90;;;;;;5275416;27;20018;-81
2024/04/17 04:22:17;;;;;;;1.70;0.85;;;5.10;99.90;;;;;;5275499;27;20007;-80
2024/04/17 04:24:43;;;;;;;5.95;1.20;;;5.10;99.90;;;;;;5275258;27;20385;-80
2024/04/17 04:27:10;;;;;;;4.82;1.10;;;5.10;99.90;;;;;;5275584;27;20006;-80
2024/04/17 04:29:40;;;;;;;5.65;1.30;;;5.10;99.90;;;;;;5275917;27;20062;-80
2024/04/17 04:32:06;;;;;;;5.63;1.10;;;5.10;99.90;;;;;;5274207;27;20006;-80
2024/04/17 04:34:32;;;;;;;4.50;1.30;;;5.10;99.90;;;;;;5275085;27;20114;-80
2024/04/17 04:36:58;;;;;;;3.78;1.13;;;5.10;99.90;;;;;;5275052;27;20093;-80
2024/04/17 04:39:24;;;;;;;3.50;1.00;;;5.20;99.90;;;;;;5260584;27;20718;-77
2024/04/17 04:41:49;;;;;;;2.47;0.88;;;5.20;99.90;;;;;;5274147;27;20021;-78
2024/04/17 04:44:15;;;;;;;1.40;0.63;;;5.20;99.90;;;;;;5274353;27;20462;-79
2024/04/17 04:46:40;;;;;;;3.55;0.70;;;5.10;99.90;;;;;;5272640;27;20505;-80
2024/04/17 04:49:06;;;;;;;1.83;0.60;;;5.10;99.90;;;;;;5274904;27;20010;-78
2024/04/17 04:51:32;;;;;;;1.00;0.60;;;5.10;99.90;;;;;;5271976;27;20011;-79
2024/04/17 04:53:57;;;;;;;3.10;0.65;;;5.00;99.90;;;;;;5262672;27;20018;-79
2024/04/17 04:56:23;;;;;;;3.42;0.80;;;4.90;99.90;;;;;;5273679;27;20011;-80
2024/04/17 04:58:49;;;;;;;4.15;0.90;;;4.90;99.90;;;;;;5274593;27;20021;-81
2024/04/17 05:01:14;;;;;;;2.42;0.95;;;4.80;99.90;;;;;;5273761;27;20085;-78
2024/04/17 05:03:40;;;;;;;4.80;0.93;;;4.80;99.90;;;;;;5274601;27;20018;-80
2024/04/17 05:06:06;;;;;;;5.45;0.80;;;4.80;99.90;;;;;;5264935;27;20073;-79
2024/04/17 05:08:32;;;;;;;3.45;0.82;;;4.70;99.90;;;;;;5273583;27;20021;-79
2024/04/17 05:10:57;;;;;;;5.88;1.05;;;4.60;99.90;;;;;;5273400;27;20010;-80
2024/04/17 05:13:23;;;;;;;2.58;0.60;;;4.60;99.90;;;;;;5272792;27;20010;-80
2024/04/17 05:15:49;;;;;;;1.58;0.70;;;4.60;99.90;;;;;;5272524;27;20014;-78
2024/04/17 05:18:15;;;;;;;2.85;0.90;;;4.60;99.90;;;;;;5273863;27;20014;-78
2024/04/17 05:20:41;;;;;;;4.43;0.80;;;4.60;99.90;;;;;;5274567;27;20021;-77
2024/04/17 05:23:06;;;;;;;2.83;0.90;;;4.50;99.90;;;;;;5276411;27;20010;-77
2024/04/17 05:25:32;;;;;;;3.00;0.88;;;4.50;99.90;;;;;;5274321;27;20003;-79
2024/04/17 05:27:58;;;;;;;5.70;1.13;;;4.50;99.90;;;;;;5275756;27;20061;-80
2024/04/17 05:30:23;;;;;;;2.25;0.80;;;4.40;99.90;;;;;;5276121;27;20085;-79
2024/04/17 05:32:49;;;;;;;5.55;0.90;;;4.50;99.90;;;;;;5275837;27;20355;-78
2024/04/17 05:35:15;;;;;;;3.70;1.00;;;4.50;99.90;;;;;;5274216;27;20022;-77
2024/04/17 05:37:40;;;;;;;3.35;1.00;;;4.50;99.90;;;;;;5274063;27;20089;-78
2024/04/17 05:40:06;;;;;;;2.03;0.80;;;4.50;99.90;;;;;;5276340;27;20010;-78
2024/04/17 05:42:32;;;;;;;4.75;1.23;;;4.50;99.90;;;;;;5273071;27;20525;-80
2024/04/17 05:44:58;;;;;;;3.15;1.00;;;4.50;99.90;;;;;;5276019;27;20058;-80
2024/04/17 05:47:24;;;;;;;2.80;0.80;;;4.50;99.90;;;;;;5275409;27;20010;-77
2024/04/17 05:49:50;;;;;;;4.10;0.82;;;4.50;99.90;;;;;;5274457;27;20014;-78
2024/04/17 05:52:17;;;;;;;2.38;1.10;;;4.50;99.90;;;;;;5275358;27;20017;-78
2024/04/17 05:54:42;;;;;;;4.95;1.05;;;4.50;99.90;;;;;;5275269;27;20017;-78
2024/04/17 05:57:08;;;;;;;3.35;1.45;;;4.50;99.90;;;;;;5274409;27;20034;-78
2024/04/17 05:59:35;;;;;;;7.45;1.33;;;4.50;99.90;;;;;;5275724;27;20027;-78
2024/04/17 06:02:01;;;;;;;4.65;1.27;;;4.50;99.90;;;;;;5275387;27;20020;-77
2024/04/17 06:04:27;;;;;;;6.97;1.30;;;4.50;99.90;;;;;;5260279;27;20007;-78
2024/04/17 06:06:52;;;;;;;4.45;1.63;;;4.50;99.90;;;;;;5261896;27;20271;-77
2024/04/17 06:09:18;;;;;;;8.00;1.60;;;4.50;99.90;;;;;;5275118;27;20018;-78
2024/04/17 06:11:44;;;;;;;6.30;1.65;;;4.50;99.90;;;;;;5275082;27;20554;-77
2024/04/17 06:14:09;;;;;;;6.30;1.70;;;4.50;99.90;;;;;;5275108;27;20021;-78
2024/04/17 06:16:35;;;;;;;6.22;1.30;;;4.50;99.90;;;;;;5275299;27;20013;-79
2024/04/17 06:19:01;;;;;;;10.82;1.80;;;4.50;99.90;;;;;;5274985;27;20018;-77
2024/04/17 06:21:28;;;;;;;5.25;1.50;;;4.60;99.90;;;;;;5270999;27;20010;-77
2024/04/17 06:23:53;;;;;;;5.75;1.45;;;4.50;99.90;;;;;;5273543;27;20022;-79
2024/04/17 06:26:19;;;;;;;4.93;1.40;;;4.60;99.90;;;;;;5268165;27;20025;-77
2024/04/17 06:28:45;;;;;;;7.70;1.50;;;4.60;99.90;;;;;;5274578;27;20022;-77
2024/04/17 06:31:11;;;;;;;3.83;1.33;;;4.60;99.90;;;;;;5274651;27;20018;-77
2024/04/17 06:33:36;;;;;;;6.43;1.85;;;4.60;99.90;;;;;;5273069;27;20046;-77
2024/04/17 06:36:02;;;;;;;7.47;1.50;;;4.60;99.90;;;;;;5274571;27;20025;-77
2024/04/17 06:38:28;;;;;;;8.43;2.05;;;4.70;99.90;;;;;;5275077;27;20018;-80
2024/04/17 06:40:55;;;;;;;4.85;1.95;;;4.70;99.90;;;;;;5274353;27;20010;-77
2024/04/17 06:43:22;;;;;;;5.55;1.67;;;4.70;99.90;;;;;;5274770;27;20025;-77
2024/04/17 06:45:48;;;;;;;5.30;1.70;;;4.70;99.90;;;;;;5274306;27;20057;-78
2024/04/17 06:48:14;;;;;;;4.47;1.60;;;4.70;99.90;;;;;;5276959;27;20028;-77
2024/04/17 06:50:40;;;;;;;5.88;1.92;;;4.80;99.90;;;;;;5274191;27;20025;-76
2024/04/17 06:53:05;;;;;;;6.65;1.77;;;4.80;99.90;;;;;;5274013;27;20018;-77
2024/04/17 06:55:31;;;;;;;3.75;2.00;;;4.80;99.90;;;;;;5272834;27;20007;-77
2024/04/17 06:57:57;;;;;;;8.23;2.20;;;4.80;99.90;;;;;;5272591;27;20494;-78
2024/04/17 07:00:33;;;;;;;7.15;1.73;;;4.80;99.90;;;;;;5273099;27;20454;-77
2024/04/17 07:02:59;;;;;;;9.38;2.47;;;4.80;99.90;;;;;;5275050;27;20012;-78
2024/04/17 07:05:26;;;;;;;6.75;2.00;;;4.90;99.90;;;;;;5277586;27;20021;-77
2024/04/17 07:07:52;;;;;;;10.40;2.05;;;4.90;99.90;;;;;;5266406;27;20018;-78
2024/04/17 07:10:18;;;;;;;5.25;1.83;;;4.90;99.90;;;;;;5268193;27;20474;-77
2024/04/17 07:12:43;;;;;;;8.77;2.13;;;4.90;99.90;;;;;;5270651;27;20010;-78
2024/04/17 07:15:09;;;;;;;12.57;2.00;;;4.90;99.90;;;;;;5274078;27;20010;-77
2024/04/17 07:17:35;;;;;;;15.73;2.55;;;5.00;99.90;;;;;;5273968;27;20081;-79
2024/04/17 07:20:01;;;;;;;11.52;3.33;;;5.10;99.90;;;;;;5265432;27;20019;-78
2024/04/17 07:22:27;;;;;;;10.73;2.80;;;5.20;99.90;;;;;;5257356;27;20026;-80
2024/04/17 07:24:53;;;;;;;7.63;2.50;;;5.30;99.90;;;;;;5274069;27;20757;-79
2024/04/17 07:27:18;;;;;;;10.38;2.60;;;5.40;99.90;;;;;;5274196;27;20018;-78
2024/04/17 07:29:44;;;;;;;9.57;2.22;;;5.60;99.90;;;;;;5273958;27;20025;-77
2024/04/17 07:32:10;;;;;;;11.32;2.40;;;5.70;99.90;;;;;;5272458;27;20480;-78
2024/04/17 07:34:35;;;;;;;12.35;2.47;;;5.90;99.90;;;;;;5274206;27;20457;-78
2024/04/17 07:37:02;;;;;;;12.02;3.08;;;6.00;99.90;;;;;;5273237;27;20461;-76
2024/04/17 07:39:28;;;;;;;10.35;2.17;;;6.30;99.90;;;;;;5286506;27;20006;-79
2024/04/17 07:41:53;;;;;;;5.60;2.30;;;6.40;99.90;;;;;;5272557;27;20056;-78
2024/04/17 07:44:20;;;;;;;11.85;3.50;;;6.50;99.90;;;;;;5271950;27;20449;-76
2024/04/17 07:46:45;;;;;;;13.57;3.30;;;6.60;99.90;;;;;;5273489;27;20497;-78
2024/04/17 07:49:11;;;;;;;11.48;2.00;;;6.60;99.90;;;;;;5274398;27;20006;-77
2024/04/17 07:51:36;;;;;;;5.85;1.85;;;6.70;99.90;;;;;;5273709;27;20462;-78
2024/04/17 07:54:02;;;;;;;11.85;2.33;;;6.80;99.90;;;;;;5273997;27;20018;-77
2024/04/17 07:56:28;;;;;;;7.88;2.28;;;6.90;99.90;;;;;;5274211;27;20474;-79
2024/04/17 07:58:53;;;;;;;8.32;2.00;;;7.00;99.90;;;;;;5274711;27;20059;-78
2024/04/17 08:01:19;;;;;;;7.82;2.03;;;7.10;99.90;;;;;;5272896;27;20014;-78
2024/04/17 08:03:45;;;;;;;5.35;1.45;;;7.10;99.90;;;;;;5260070;27;20470;-78
2024/04/17 08:06:12;;;;;;;8.27;1.80;;;7.10;99.90;;;;;;5263009;27;20475;-81
2024/04/17 08:08:40;;;;;;;5.18;1.65;;;7.20;99.90;;;;;;5271944;27;20042;-79
2024/04/17 08:11:06;;;;;;;13.60;2.33;;;7.30;99.90;;;;;;5274880;27;20032;-79
2024/04/17 08:13:32;;;;;;;9.00;2.08;;;7.30;99.90;;;;;;5285359;27;20010;-79
2024/04/17 08:15:57;;;;;;;7.13;1.90;;;7.30;99.90;;;;;;5275282;27;20006;-79
2024/04/17 08:18:23;;;;;;;8.05;1.83;;;7.30;99.90;;;;;;5273859;27;20563;-80
2024/04/17 08:20:56;;;;;;;11.80;2.38;;;7.80;99.90;;;;;;5261117;27;20003;-78
2024/04/17 08:23:21;;;;;;;9.57;2.03;;;7.30;99.90;;;;;;5276318;27;20066;-81
2024/04/17 08:25:47;;;;;;;9.38;2.70;;;7.30;99.90;;;;;;5261681;27;20011;-79
2024/04/17 08:28:13;;;;;;;6.43;2.17;;;7.30;99.90;;;;;;5293543;27;20011;-79
2024/04/17 08:30:38;;;;;;;10.40;1.90;;;7.20;99.90;;;;;;5259367;27;20010;-78
2024/04/17 08:33:04;;;;;;;11.65;2.13;;;7.20;99.90;;;;;;5276223;27;20006;-80
2024/04/17 08:35:30;;;;;;;9.98;2.20;;;7.20;99.90;;;;;;5262307;27;20137;-79
2024/04/17 08:37:55;;;;;;;7.38;1.92;;;7.30;99.90;;;;;;5253556;27;20351;-80
2024/04/17 08:40:22;;;;;;;7.40;1.60;;;7.30;99.90;;;;;;5269155;27;20018;-78
2024/04/17 08:42:51;;;;;;;11.05;1.90;;;7.40;99.90;;;;;;5250826;27;20439;-81
2024/04/17 08:45:28;;;;;;;11.93;2.60;;;7.50;99.90;;;;;;5277042;27;20092;-82
2024/04/17 08:47:56;;;;;;;9.10;2.45;;;7.60;99.90;;;;;;5265017;27;20015;-83
2024/04/17 08:50:24;;;;;;;6.38;1.40;;;7.60;99.90;;;;;;5263543;27;20530;-81
2024/04/17 08:52:53;;;;;;;8.50;2.08;;;7.70;99.90;;;;;;5265430;27;20354;-81
2024/04/17 08:55:20;;;;;;;7.47;1.60;;;7.70;99.90;;;;;;5269520;27;20538;-84
2024/04/17 08:57:45;;;;;;;8.63;2.72;;;7.80;99.90;;;;;;5265369;27;20676;-83
2024/04/17 09:00:12;;;;;;;7.72;1.70;;;7.90;99.90;;;;;;5278560;27;20506;-81
2024/04/17 09:02:40;;;;;;;7.32;1.88;;;8.00;99.90;;;;;;5280689;27;20010;-82
2024/04/17 09:05:08;;;;;;;8.57;1.90;;;8.00;99.90;;;;;;5276495;27;20011;-82
2024/04/17 09:07:36;;;;;;;7.30;1.85;;;8.00;99.90;;;;;;5276112;27;20022;-82
2024/04/17 09:10:01;;;;;;;8.15;1.38;;;8.00;99.90;;;;;;5274399;27;20050;-81
2024/04/17 09:12:30;;;;;;;6.63;1.20;;;8.00;99.90;;;;;;5279905;27;20102;-83
2024/04/17 09:14:57;;;;;;;9.63;2.10;;;8.00;99.90;;;;;;5279181;27;20094;-80
2024/04/17 09:17:23;;;;;;;7.25;1.70;;;8.10;99.90;;;;;;5280373;27;20473;-81
2024/04/17 09:19:49;;;;;;;6.78;1.98;;;8.20;99.90;;;;;;5267371;27;20015;-81
2024/04/17 09:22:16;;;;;;;6.57;1.60;;;8.20;99.90;;;;;;5280227;27;20450;-80
2024/04/17 09:24:41;;;;;;;8.10;1.60;;;8.30;99.90;;;;;;5281421;27;20010;-80
2024/04/17 09:27:15;;;;;;;5.03;1.25;;;8.20;99.90;;;;;;5303776;26;20018;-80
2024/04/17 09:29:40;;;;;;;4.53;1.52;;;8.20;99.90;;;;;;5279327;27;20022;-80
2024/04/17 09:32:12;;;;;;;4.32;1.42;;;8.10;99.90;;;;;;5279639;27;20346;-79
2024/04/17 09:34:39;;;;;;;8.93;1.67;;;8.00;99.90;;;;;;5282546;27;20010;-81
2024/04/17 09:37:08;;;;;;;7.65;1.80;;;8.00;99.90;;;;;;5303444;27;20006;-80
2024/04/17 09:39:33;;;;;;;9.23;1.58;;;8.00;99.90;;;;;;5279540;27;20006;-80
2024/04/17 09:42:01;;;;;;;5.68;1.40;;;8.10;99.90;;;;;;5305765;27;20021;-81
2024/04/17 09:44:28;;;;;;;8.23;1.60;;;8.20;99.90;;;;;;5279165;27;20013;-80
2024/04/17 09:46:58;;;;;;;9.75;1.60;;;8.30;99.90;;;;;;5280621;27;20010;-80
2024/04/17 09:49:27;;;;;;;8.57;1.77;;;8.60;99.90;;;;;;5280184;27;20017;-81
2024/04/17 09:51:56;;;;;;;6.38;1.40;;;8.70;99.90;;;;;;5279923;27;20085;-80
2024/04/17 09:54:23;;;;;;;4.35;1.80;;;8.90;99.90;;;;;;5280095;27;20028;-79
2024/04/17 09:56:50;;;;;;;8.10;1.67;;;9.10;99.90;;;;;;5264707;27;20022;-82
2024/04/17 09:59:19;;;;;;;12.93;1.60;;;9.10;99.90;;;;;;5278412;27;20022;-81
2024/04/17 10:01:46;;;;;;;8.10;1.10;;;9.10;99.90;;;;;;5277761;27;20025;-79
2024/04/17 10:04:14;;;;;;;8.52;1.10;;;9.00;99.90;;;;;;5273180;27;20017;-80
2024/04/17 10:06:43;;;;;;;8.68;1.60;;;8.90;99.90;;;;;;5275412;27;20285;-80
2024/04/17 10:09:13;;;;;;;4.80;1.40;;;8.80;99.90;;;;;;5277406;27;20051;-79
2024/04/17 10:11:39;;;;;;;7.10;1.20;;;8.80;99.90;;;;;;5276719;27;20011;-79
2024/04/17 10:14:13;;;;;;;6.63;1.45;;;8.80;99.90;;;;;;5277431;27;20010;-79
2024/04/17 10:16:39;;;;;;;5.63;1.75;;;8.90;99.90;;;;;;5275680;27;20462;-79
2024/04/17 10:19:05;;;;;;;5.40;1.27;;;9.00;99.90;;;;;;5276406;27;20030;-79
2024/04/17 10:21:35;;;;;;;2.95;1.02;;;9.10;99.90;;;;;;5276490;27;20493;-78
2024/04/17 10:24:03;;;;;;;8.00;1.55;;;9.20;99.90;;;;;;5277080;27;20409;-80
2024/04/17 10:26:42;;;;;;;4.03;0.93;;;9.20;99.90;;;;;;5261263;27;20011;-80
2024/04/17 10:29:41;;;;;;;5.35;1.45;;;9.10;99.90;;;;;;5275625;27;20018;-81
2024/04/17 10:32:14;;;;;;;8.55;1.52;;;9.10;99.90;;;;;;5265004;27;20013;-78
2024/04/17 10:34:53;;;;;;;4.70;1.13;;;9.10;99.90;;;;;;5276580;27;20111;-80
2024/04/17 10:37:19;;;;;;;4.35;1.25;;;9.10;99.90;;;;;;5275786;27;20553;-79
2024/04/17 10:39:46;;;;;;;4.57;1.00;;;9.10;99.90;;;;;;5276743;27;20010;-79
2024/04/17 10:42:17;;;;;;;5.65;1.20;;;9.20;99.90;;;;;;5269737;27;20475;-78
2024/04/17 10:44:50;;;;;;;6.57;1.20;;;9.20;99.90;;;;;;5255064;27;20010;-79
2024/04/17 10:47:20;;;;;;;5.60;1.35;;;9.20;99.90;;;;;;5274829;27;20544;-80
2024/04/17 10:49:55;;;;;;;9.88;1.63;;;9.30;99.90;;;;;;5275799;27;20465;-79
2024/04/17 10:52:22;;;;;;;6.07;1.20;;;9.60;99.90;;;;;;5276966;27;20021;-79
2024/04/17 10:54:48;;;;;;;4.57;1.30;;;9.20;99.90;;;;;;5276211;27;20773;-80
2024/04/17 10:57:16;;;;;;;4.93;1.50;;;9.20;99.90;;;;;;5275536;27;20010;-79
2024/04/17 10:59:47;;;;;;;9.43;1.25;;;9.10;99.90;;;;;;5275710;27;20092;-78
2024/04/17 11:02:13;;;;;;;5.10;1.10;;;9.00;99.90;;;;;;5275575;27;20011;-80
2024/04/17 11:04:39;;;;;;;4.35;1.20;;;8.90;99.90;;;;;;5270974;27;20088;-79
2024/04/17 11:07:08;;;;;;;6.63;1.30;;;8.80;99.90;;;;;;5269528;27;20019;-80
2024/04/17 11:09:34;;;;;;;5.38;1.55;;;8.70;99.90;;;;;;5274684;27;20085;-79
2024/04/17 11:12:00;;;;;;;9.07;1.60;;;8.60;99.90;;;;;;5275897;27;20423;-80
2024/04/17 11:14:25;;;;;;;7.60;1.67;;;8.50;99.90;;;;;;5274579;27;20011;-78
2024/04/17 11:16:51;;;;;;;10.25;1.40;;;8.50;99.90;;;;;;5274920;27;20014;-79
2024/04/17 11:19:18;;;;;;;12.43;1.65;;;8.60;99.90;;;;;;5302245;27;20330;-80
2024/04/17 11:21:44;;;;;;;6.45;1.23;;;8.70;99.90;;;;;;5273787;27;20854;-80
2024/04/17 11:24:20;;;;;;;6.38;1.38;;;8.90;99.90;;;;;;5260708;27;20018;-79
2024/04/17 11:26:46;;;;;;;6.00;1.42;;;9.00;99.90;;;;;;5274760;27;20446;-79
2024/04/17 11:29:21;;;;;;;4.63;1.23;;;9.10;99.90;;;;;;5273537;27;20006;-79
2024/04/17 11:31:47;;;;;;;2.97;1.00;;;9.20;99.90;;;;;;5274491;27;20022;-81
2024/04/17 11:34:23;;;;;;;4.07;1.20;;;9.40;99.90;;;;;;5274982;27;20016;-80
2024/04/17 11:36:49;;;;;;;9.90;1.38;;;9.60;99.90;;;;;;5274256;27;20025;-79
2024/04/17 11:39:19;;;;;;;7.55;1.20;;;9.70;99.90;;;;;;5272737;27;20013;-79
2024/04/17 11:41:49;;;;;;;4.53;1.45;;;9.80;99.90;;;;;;5272556;27;20076;-79
2024/04/17 11:44:15;;;;;;;6.28;1.98;;;10.00;99.90;;;;;;5271873;27;20006;-79
2024/04/17 11:46:42;;;;;;;9.55;1.52;;;10.00;99.90;;;;;;5272623;27;20025;-81
2024/04/17 11:49:10;;;;;;;8.10;1.67;;;9.80;99.90;;;;;;5274414;27;20010;-78
2024/04/17 11:51:36;;;;;;;7.82;1.50;;;9.70;99.90;;;;;;5274654;27;20574;-77
2024/04/17 11:54:03;;;;;;;9.98;1.88;;;9.60;99.90;;;;;;5302298;27;20018;-78
2024/04/17 11:56:29;;;;;;;4.53;1.23;;;9.50;99.90;;;;;;5275716;27;20051;-79
2024/04/17 11:58:55;;;;;;;3.08;1.10;;;9.40;99.90;;;;;;5275665;27;20010;-79
2024/04/17 12:01:20;;;;;;;4.57;1.40;;;9.30;99.90;;;;;;5274800;27;20018;-78
2024/04/17 12:03:46;;;;;;;8.45;1.40;;;9.30;99.90;;;;;;5274317;27;20345;-79
2024/04/17 12:06:12;;;;;;;6.53;1.45;;;9.30;99.90;;;;;;5263736;27;20054;-80
2024/04/17 12:08:38;;;;;;;4.05;1.25;;;9.40;99.90;;;;;;5271980;27;20018;-81
2024/04/17 12:11:03;;;;;;;3.20;1.35;;;9.50;99.90;;;;;;5285546;27;20358;-81
2024/04/17 12:13:29;;;;;;;3.58;0.93;;;9.60;99.90;;;;;;5271394;27;20049;-80
2024/04/17 12:15:55;;;;;;;3.05;0.98;;;9.70;99.90;;;;;;5251656;27;20043;-80
2024/04/17 12:18:20;;;;;;;5.93;1.10;;;9.80;99.90;;;;;;5241084;27;20017;-80
2024/04/17 12:20:46;;;;;;;2.72;0.80;;;9.90;99.90;;;;;;5241372;27;20759;-80
2024/04/17 12:23:18;;;;;;;5.05;0.80;;;10.00;99.90;;;;;;5265319;27;20426;-80
2024/04/17 12:28:30;;;;;;;5.57;1.73;;;10.10;99.90;;;;;;5276697;27;20010;-79
2024/04/17 12:30:56;;;;;;;4.25;0.98;;;10.40;99.90;;;;;;5264950;27;20021;-78
2024/04/17 12:33:22;;;;;;;7.18;1.20;;;10.50;99.90;;;;;;5277419;27;20358;-78
2024/04/17 12:35:48;;;;;;;3.00;0.80;;;10.40;99.90;;;;;;5277951;27;20443;-80
2024/04/17 12:38:14;;;;;;;4.03;0.98;;;10.60;99.90;;;;;;5277656;27;20433;-79
2024/04/17 12:40:39;;;;;;;7.50;1.45;;;10.50;99.90;;;;;;5277277;27;20361;-78
2024/04/17 12:43:06;;;;;;;5.03;0.95;;;10.60;99.90;;;;;;5274687;27;20022;-79
2024/04/17 12:45:32;;;;;;;5.68;1.60;;;10.70;99.90;;;;;;5275862;27;20017;-80
2024/04/17 12:47:58;;;;;;;3.75;1.05;;;10.90;99.90;;;;;;5278287;27;20018;-79
2024/04/17 12:50:24;;;;;;;6.30;1.30;;;11.10;99.90;;;;;;5277682;27;20085;-79
2024/04/17 12:52:53;;;;;;;4.55;1.13;;;11.20;99.90;;;;;;5277508;27;20010;-79
2024/04/17 12:55:20;;;;;;;6.43;1.50;;;11.00;99.90;;;;;;5277056;27;20111;-79
2024/04/17 12:57:45;;;;;;;5.57;1.73;;;11.00;99.90;;;;;;5263538;27;20540;-80